Time;durP1;ratioP1;P1;durP2;ratioP2;P2;SDS_P1;SDS_P2;PMS_P1;PMS_P2;Temp;Humidity;BMP_temperature;BMP_pressure;BME280_temperature;BME280_humidity;BME280_pressure;Samples;Min_cycle;Max_cycle;Signal;HPM_P1;HPM_P2
2021/11/02 00:01:04;;;;;;;32.13;24.63;;;16.00;99.90;;;;;;5053884;28;20033;-52
2021/11/02 00:03:30;;;;;;;37.58;25.95;;;16.10;99.90;;;;;;5032873;28;20029;-51
2021/11/02 00:05:56;;;;;;;31.73;23.10;;;15.90;99.90;;;;;;5046451;28;20043;-51
2021/11/02 00:08:22;;;;;;;33.42;24.90;;;16.00;99.90;;;;;;5034656;28;20538;-51
2021/11/02 00:10:47;;;;;;;31.92;24.33;;;15.90;99.90;;;;;;5035606;28;20026;-51
2021/11/02 00:13:14;;;;;;;30.80;22.52;;;15.90;99.90;;;;;;5047545;28;20087;-50
2021/11/02 00:15:42;;;;;;;37.65;24.73;;;15.70;99.90;;;;;;5053947;28;20025;-52
2021/11/02 00:18:11;;;;;;;35.38;24.13;;;15.80;99.90;;;;;;5040711;28;20041;-53
2021/11/02 00:20:38;;;;;;;32.97;24.38;;;15.80;99.90;;;;;;5035490;28;20533;-50
2021/11/02 00:23:06;;;;;;;31.50;23.50;;;15.70;99.90;;;;;;5045876;28;20021;-51
2021/11/02 00:25:37;;;;;;;29.73;20.98;;;15.70;99.90;;;;;;5055272;28;20479;-52
2021/11/02 00:28:04;;;;;;;30.55;20.35;;;15.80;99.90;;;;;;5053055;28;20021;-52
2021/11/02 00:30:30;;;;;;;28.40;20.63;;;15.70;99.90;;;;;;5055353;28;20421;-54
2021/11/02 00:32:56;;;;;;;27.90;19.55;;;15.70;99.90;;;;;;5052444;28;20025;-52
2021/11/02 00:35:24;;;;;;;29.05;20.48;;;15.60;99.90;;;;;;5042706;28;20025;-50
2021/11/02 00:37:50;;;;;;;28.38;18.58;;;15.70;99.90;;;;;;5039874;28;20067;-51
2021/11/02 00:40:20;;;;;;;27.55;19.92;;;15.70;99.90;;;;;;5054791;28;20057;-50
2021/11/02 00:43:00;;;;;;;24.73;18.50;;;15.50;99.90;;;;;;5046191;28;20499;-54
2021/11/02 00:45:35;;;;;;;25.25;18.23;;;15.50;99.90;;;;;;5022823;28;20041;-56
2021/11/02 00:48:04;;;;;;;25.75;18.05;;;15.50;99.90;;;;;;5023731;28;20105;-54
2021/11/02 00:50:35;;;;;;;25.02;17.75;;;15.50;99.90;;;;;;5033412;28;20021;-54
2021/11/02 00:53:02;;;;;;;24.55;18.23;;;15.50;99.90;;;;;;5041667;28;20033;-49
2021/11/02 00:55:30;;;;;;;23.70;17.23;;;15.40;99.90;;;;;;5054577;28;20028;-50
2021/11/02 00:57:56;;;;;;;24.55;17.33;;;15.40;99.90;;;;;;5045792;28;20582;-51
2021/11/02 01:00:24;;;;;;;23.17;17.33;;;15.30;99.90;;;;;;5032680;28;20041;-52
2021/11/02 01:02:50;;;;;;;20.58;15.70;;;15.30;99.90;;;;;;5041578;28;20060;-50
2021/11/02 01:05:16;;;;;;;22.90;17.30;;;15.40;99.90;;;;;;5051530;28;20040;-50
2021/11/02 01:07:42;;;;;;;23.38;17.27;;;15.40;99.90;;;;;;5054719;28;20023;-49
2021/11/02 01:10:15;;;;;;;19.65;16.13;;;15.20;99.90;;;;;;5052592;28;20471;-55
2021/11/02 01:12:41;;;;;;;23.25;18.38;;;15.30;99.90;;;;;;5014805;28;20534;-52
2021/11/02 01:15:07;;;;;;;23.30;17.58;;;15.40;99.90;;;;;;5014609;28;20034;-51
2021/11/02 01:17:34;;;;;;;23.15;18.63;;;15.20;99.90;;;;;;5053580;28;20025;-50
2021/11/02 01:20:00;;;;;;;24.45;19.60;;;15.30;99.90;;;;;;5050393;28;20059;-50
2021/11/02 01:22:26;;;;;;;24.63;20.77;;;15.20;99.90;;;;;;5016259;28;20030;-52
2021/11/02 01:24:56;;;;;;;26.75;20.33;;;15.30;99.90;;;;;;5026607;28;20037;-54
2021/11/02 01:27:22;;;;;;;24.40;19.38;;;15.20;99.90;;;;;;5033398;28;20186;-51
2021/11/02 01:29:47;;;;;;;35.28;25.98;;;15.30;99.90;;;;;;5031963;28;20420;-50
2021/11/02 01:32:13;;;;;;;34.13;25.35;;;15.10;99.90;;;;;;5046972;28;20537;-50
2021/11/02 01:34:39;;;;;;;34.45;24.98;;;15.20;99.90;;;;;;5054012;28;20447;-51
2021/11/02 01:37:05;;;;;;;38.17;27.48;;;15.20;99.90;;;;;;5037995;28;20064;-51
2021/11/02 01:39:31;;;;;;;40.75;28.02;;;15.10;99.90;;;;;;5033824;28;20072;-50
2021/11/02 01:42:01;;;;;;;42.25;28.63;;;15.20;99.90;;;;;;5032831;28;20491;-52
2021/11/02 01:44:27;;;;;;;38.05;28.02;;;15.40;99.90;;;;;;5033876;28;20120;-51
2021/11/02 01:46:53;;;;;;;42.08;28.33;;;15.30;99.90;;;;;;5032273;28;20110;-53
2021/11/02 01:49:20;;;;;;;43.38;29.15;;;15.30;99.90;;;;;;5034039;28;20053;-50
2021/11/02 01:51:46;;;;;;;43.70;29.63;;;15.30;99.90;;;;;;5032789;28;20033;-50
2021/11/02 01:54:12;;;;;;;43.13;28.15;;;15.30;99.90;;;;;;5033894;28;20115;-51
2021/11/02 01:56:38;;;;;;;41.80;27.45;;;15.50;99.90;;;;;;5043563;28;20497;-50
2021/11/02 01:59:04;;;;;;;43.53;27.77;;;15.60;99.90;;;;;;5034097;28;20053;-52
2021/11/02 02:01:51;;;;;;;42.72;27.67;;;15.40;99.90;;;;;;5032662;28;20029;-52
2021/11/02 02:04:47;;;;;;;39.13;25.00;;;15.30;99.90;;;;;;5032296;28;20041;-50
2021/11/02 02:07:42;;;;;;;40.10;26.23;;;15.20;99.90;;;;;;5049999;28;20028;-53
2021/11/02 02:10:20;;;;;;;34.90;23.65;;;15.00;99.90;;;;;;5051504;28;20355;-52
2021/11/02 02:12:57;;;;;;;37.38;23.48;;;15.10;99.90;;;;;;5013776;28;20014;-52
2021/11/02 02:15:34;;;;;;;35.50;23.08;;;15.10;99.90;;;;;;5020643;28;20037;-50
2021/11/02 02:18:02;;;;;;;35.53;23.45;;;10.20;99.90;;;;;;5032522;28;20037;-52
2021/11/02 02:20:59;;;;;;;39.63;23.55;;;10.10;99.90;;;;;;5032470;28;20033;-51
2021/11/02 02:23:48;;;;;;;39.13;25.55;;;14.80;99.90;;;;;;5031888;28;20045;-50
2021/11/02 02:26:41;;;;;;;35.92;22.77;;;10.10;99.90;;;;;;5032567;28;20411;-52
2021/11/02 02:29:08;;;;;;;38.72;24.85;;;10.00;99.90;;;;;;5033429;28;20165;-51
2021/11/02 02:31:40;;;;;;;36.42;24.02;;;14.60;99.90;;;;;;5042984;28;20029;-53
2021/11/02 02:34:12;;;;;;;34.70;21.50;;;14.60;99.90;;;;;;5053022;28;20112;-50
2021/11/02 02:36:39;;;;;;;29.33;19.42;;;14.50;99.90;;;;;;5039414;28;20032;-50
2021/11/02 02:39:05;;;;;;;26.50;18.13;;;14.40;99.90;;;;;;5032058;28;20053;-54
2021/11/02 02:41:33;;;;;;;27.83;18.55;;;14.30;99.90;;;;;;5030929;28;20479;-51
2021/11/02 02:44:00;;;;;;;26.60;18.35;;;14.50;99.90;;;;;;5031746;28;20033;-51
2021/11/02 02:46:28;;;;;;;24.83;17.90;;;14.00;99.90;;;;;;5040626;28;20033;-52
2021/11/02 02:48:55;;;;;;;31.65;19.50;;;;;;;;;;5051569;28;20029;-51
2021/11/02 02:51:22;;;;;;;33.42;22.10;;;;;;;;;;5042517;28;20033;-51
2021/11/02 02:53:49;;;;;;;40.97;24.02;;;13.80;99.90;;;;;;5031709;28;20033;-50
2021/11/02 02:56:17;;;;;;;39.97;22.40;;;14.50;99.90;;;;;;5030791;28;20036;-51
2021/11/02 02:58:47;;;;;;;39.90;24.00;;;14.40;99.90;;;;;;5036338;28;20036;-50
2021/11/02 03:01:16;;;;;;;37.83;23.55;;;14.40;99.90;;;;;;5040645;28;20025;-51
2021/11/02 03:03:53;;;;;;;40.65;22.98;;;14.40;99.90;;;;;;5057034;28;20136;-51
2021/11/02 03:06:21;;;;;;;39.90;23.85;;;14.50;99.90;;;;;;5054166;28;20069;-53
2021/11/02 03:08:48;;;;;;;43.38;24.95;;;14.40;99.90;;;;;;5042956;28;20116;-51
2021/11/02 03:11:16;;;;;;;37.17;23.42;;;14.30;99.90;;;;;;5035939;28;20117;-53
2021/11/02 03:13:47;;;;;;;40.08;25.67;;;14.20;99.90;;;;;;5035623;28;20100;-51
2021/11/02 03:16:22;;;;;;;35.40;23.08;;;14.30;99.90;;;;;;5035818;28;20036;-51
2021/11/02 03:49:31;;;;;;;24.40;14.05;;;13.40;99.90;;;;;;5056525;28;20313;-52
2021/11/02 03:54:53;;;;;;;16.10;14.18;;;13.60;99.90;;;;;;5055492;28;20155;-56
2021/11/02 03:57:41;;;;;;;17.45;15.07;;;13.40;99.90;;;;;;5042892;28;20025;-56
2021/11/02 05:06:48;;;;;;;15.15;13.55;;;14.50;99.40;;;;;;5034134;28;20040;-51
2021/11/02 05:47:58;;;;;;;13.40;10.77;;;13.60;98.00;;;;;;5054398;28;20323;-53
2021/11/02 06:04:11;;;;;;;15.18;11.73;;;13.60;98.00;;;;;;5037135;28;20029;-52
2021/11/02 06:07:10;;;;;;;15.85;11.85;;;13.40;97.60;;;;;;5052129;28;20032;-51
2021/11/02 06:09:43;;;;;;;16.42;11.50;;;13.60;97.10;;;;;;5033830;28;20104;-52
2021/11/02 06:29:02;;;;;;;19.35;13.25;;;13.60;97.30;;;;;;5016935;28;20044;-51
2021/11/02 06:31:33;;;;;;;17.55;12.65;;;13.60;96.80;;;;;;5032672;28;20464;-52
2021/11/02 06:53:35;;;;;;;18.15;12.57;;;13.00;96.10;;;;;;5031455;28;20034;-60
2021/11/02 07:19:19;;;;;;;15.68;10.98;;;12.70;96.10;;;;;;5032204;28;20100;-50
2021/11/02 07:28:10;;;;;;;16.17;11.38;;;12.80;95.50;;;;;;5053259;28;20032;-54
2021/11/02 08:48:45;;;;;;;26.05;19.42;;;13.50;95.20;;;;;;5032892;28;20495;-52
2021/11/02 08:51:12;;;;;;;30.02;20.83;;;13.50;95.50;;;;;;5029911;28;20022;-54
2021/11/02 08:53:37;;;;;;;30.83;21.77;;;13.30;95.50;;;;;;5026079;28;20033;-55
2021/11/02 08:56:03;;;;;;;31.00;21.90;;;13.30;95.60;;;;;;5034500;28;20109;-55
2021/11/02 08:58:30;;;;;;;30.73;22.80;;;13.40;95.60;;;;;;5034090;28;20112;-55
2021/11/02 09:00:58;;;;;;;26.00;20.40;;;13.40;94.80;;;;;;5034452;28;20088;-57
2021/11/02 09:03:34;;;;;;;27.30;22.17;;;13.50;95.60;;;;;;5044925;28;20025;-55
2021/11/02 09:06:03;;;;;;;30.15;22.92;;;13.50;95.30;;;;;;5014969;28;20030;-55
2021/11/02 09:08:41;;;;;;;30.73;22.60;;;13.40;94.60;;;;;;5023916;28;20021;-55
2021/11/02 09:11:07;;;;;;;31.88;22.58;;;13.60;94.90;;;;;;5033014;28;20021;-56
2021/11/02 09:13:36;;;;;;;34.67;23.13;;;13.50;95.10;;;;;;5043879;28;20067;-54
2021/11/02 09:16:05;;;;;;;32.90;24.13;;;13.60;95.50;;;;;;5052884;28;20381;-55
2021/11/02 09:18:31;;;;;;;33.88;23.38;;;13.60;95.00;;;;;;5042492;28;20109;-53
2021/11/02 09:20:58;;;;;;;32.55;22.90;;;13.50;95.70;;;;;;5033683;28;20424;-57
2021/11/02 09:23:26;;;;;;;34.20;25.58;;;13.70;94.00;;;;;;5040088;28;20021;-59
2021/11/02 09:25:53;;;;;;;33.03;22.63;;;13.70;95.00;;;;;;5025055;28;20035;-61
2021/11/02 09:28:19;;;;;;;30.27;21.60;;;13.80;94.80;;;;;;5046920;28;20056;-60
2021/11/02 09:30:46;;;;;;;31.80;22.40;;;13.80;94.80;;;;;;5051696;28;20086;-61
2021/11/02 09:33:11;;;;;;;30.98;23.52;;;13.90;94.30;;;;;;5039307;28;20026;-60
2021/11/02 09:35:38;;;;;;;36.75;25.88;;;14.10;94.20;;;;;;5034080;28;20074;-58
2021/11/02 09:38:07;;;;;;;43.03;28.10;;;14.00;94.10;;;;;;5037793;28;20040;-55
2021/11/02 09:41:03;;;;;;;42.25;29.05;;;14.00;94.20;;;;;;5053347;28;20049;-60
2021/11/02 09:43:51;;;;;;;45.50;29.58;;;13.90;93.80;;;;;;5043325;28;20375;-60
2021/11/02 09:46:41;;;;;;;50.50;29.95;;;13.90;93.80;;;;;;5032789;28;20042;-61
2021/11/02 09:49:43;;;;;;;43.88;29.30;;;14.00;94.00;;;;;;5043766;28;20116;-58
2021/11/02 09:52:39;;;;;;;47.60;29.85;;;14.00;93.80;;;;;;5016069;28;20048;-60
2021/11/02 09:55:38;;;;;;;46.03;30.27;;;14.10;93.40;;;;;;5014138;28;20057;-60
2021/11/02 09:58:21;;;;;;;46.30;31.83;;;14.00;92.80;;;;;;5017579;28;20033;-60
2021/11/02 10:01:00;;;;;;;44.78;30.48;;;14.30;92.70;;;;;;5036630;28;20033;-61
2021/11/02 10:03:45;;;;;;;46.65;31.38;;;14.20;92.80;;;;;;5044773;28;20038;-60
2021/11/02 10:06:31;;;;;;;49.28;34.30;;;14.10;92.30;;;;;;5032993;28;20090;-60
2021/11/02 10:09:16;;;;;;;50.40;32.67;;;13.90;93.00;;;;;;5043087;28;20513;-60
2021/11/02 10:11:50;;;;;;;52.97;34.13;;;14.10;93.10;;;;;;5054025;28;20049;-60
2021/11/02 10:14:28;;;;;;;44.67;32.33;;;14.10;93.50;;;;;;5050928;28;20070;-60
2021/11/02 10:17:01;;;;;;;41.58;31.35;;;14.00;92.90;;;;;;5053424;28;20021;-61
2021/11/02 10:19:39;;;;;;;47.65;34.15;;;14.10;92.40;;;;;;5049908;28;20041;-61
2021/11/02 10:22:11;;;;;;;51.45;34.08;;;14.10;93.10;;;;;;5048354;28;20083;-60
2021/11/02 10:25:00;;;;;;;46.33;31.73;;;14.00;93.20;;;;;;5050836;28;20557;-60
2021/11/02 10:27:46;;;;;;;41.67;30.98;;;14.20;93.10;;;;;;5053417;28;20083;-60
2021/11/02 10:30:28;;;;;;;;;;;14.10;92.50;;;;;;5031758;28;20029;-60
2021/11/02 10:33:00;;;;;;;45.05;30.55;;;14.00;92.40;;;;;;5031538;28;19944;-60
2021/11/02 10:35:54;;;;;;;43.45;31.67;;;14.40;92.50;;;;;;5037818;28;20108;-60
2021/11/02 10:38:32;;;;;;;42.78;31.15;;;14.60;97.20;;;;;;5047575;28;20032;-60
2021/11/02 10:41:04;;;;;;;46.17;31.08;;;14.40;98.00;;;;;;5052819;28;20045;-60
2021/11/02 10:43:48;;;;;;;47.85;32.58;;;14.70;98.20;;;;;;5045439;28;20069;-60
2021/11/02 10:46:15;;;;;;;42.83;30.17;;;14.50;98.80;;;;;;5032936;28;20041;-60
2021/11/02 10:48:44;;;;;;;45.70;30.77;;;14.60;99.20;;;;;;5035665;28;20033;-60
2021/11/02 10:51:32;;;;;;;43.47;30.75;;;14.70;99.20;;;;;;5047127;28;20451;-60
2021/11/02 10:54:41;;;;;;;45.05;31.45;;;14.80;99.60;;;;;;5050137;28;20029;-60
2021/11/02 10:57:17;;;;;;;46.80;31.88;;;14.90;99.20;;;;;;5030488;28;20048;-60
2021/11/02 10:59:46;;;;;;;43.03;31.00;;;14.90;97.70;;;;;;5046694;28;20029;-61
2021/11/02 11:02:32;;;;;;;42.88;30.45;;;14.90;98.40;;;;;;5032994;28;20030;-60
2021/11/02 11:05:00;;;;;;;40.70;29.85;;;14.80;97.20;;;;;;5031670;28;20054;-60
2021/11/02 11:07:37;;;;;;;45.88;29.98;;;15.00;98.00;;;;;;5032945;28;20498;-60
2021/11/02 11:10:06;;;;;;;42.03;29.98;;;15.00;98.50;;;;;;5048758;28;20025;-60
2021/11/02 11:12:49;;;;;;;39.17;27.95;;;14.90;98.70;;;;;;5052844;28;20017;-60
2021/11/02 11:15:15;;;;;;;37.70;27.25;;;14.80;98.20;;;;;;5032475;28;20513;-60
2021/11/02 11:17:51;;;;;;;35.67;25.48;;;15.00;98.20;;;;;;5032642;28;20467;-60
2021/11/02 11:20:18;;;;;;;34.45;25.60;;;15.00;97.90;;;;;;5054533;28;20028;-60
2021/11/02 11:22:47;;;;;;;29.35;22.83;;;15.00;96.80;;;;;;5054344;28;20113;-60
2021/11/02 11:25:37;;;;;;;30.27;22.92;;;15.10;93.70;;;;;;5034462;28;20087;-60
2021/11/02 11:28:05;;;;;;;26.08;21.85;;;15.10;92.80;;;;;;5034989;28;20024;-60
2021/11/02 11:30:35;;;;;;;26.75;20.85;;;15.00;93.60;;;;;;5035926;28;20017;-60
2021/11/02 11:33:11;;;;;;;24.73;20.35;;;15.10;93.40;;;;;;5051559;28;20025;-60
2021/11/02 11:35:38;;;;;;;26.35;20.55;;;15.10;93.50;;;;;;5016236;28;20026;-60
2021/11/02 11:38:06;;;;;;;23.63;19.20;;;14.90;93.80;;;;;;5016817;28;20026;-60
2021/11/02 11:40:34;;;;;;;24.08;18.95;;;15.00;93.60;;;;;;5055880;28;20525;-60
2021/11/02 11:43:06;;;;;;;22.02;17.70;;;15.00;93.80;;;;;;5052650;28;20045;-60
2021/11/02 11:45:34;;;;;;;25.40;19.17;;;15.10;92.70;;;;;;5016286;28;20030;-60
2021/11/02 11:48:06;;;;;;;23.60;19.08;;;15.00;93.40;;;;;;5019770;28;20025;-60
2021/11/02 11:50:34;;;;;;;22.30;19.23;;;14.90;92.90;;;;;;5016112;28;20022;-61
2021/11/02 11:53:02;;;;;;;27.10;21.10;;;15.00;93.30;;;;;;5015779;28;20036;-60
2021/11/02 11:55:42;;;;;;;24.35;20.17;;;15.00;92.30;;;;;;5054233;28;20037;-60
2021/11/02 11:58:09;;;;;;;24.30;19.67;;;15.00;92.30;;;;;;5053995;28;20107;-60
2021/11/02 12:00:38;;;;;;;25.55;19.85;;;15.10;92.80;;;;;;5054394;28;21577;-60
2021/11/02 12:03:37;;;;;;;24.67;20.23;;;15.10;92.90;;;;;;5053204;28;20033;-61
2021/11/02 12:06:19;;;;;;;23.77;19.08;;;;;;;;;;5015922;28;20044;-60
2021/11/02 12:08:58;;;;;;;20.60;17.27;;;;;;;;;;5020431;28;20021;-60
2021/11/02 12:11:29;;;;;;;22.17;18.88;;;;;;;;;;5035588;28;20613;-60
2021/11/02 12:14:00;;;;;;;22.15;18.73;;;;;;;;;;5039431;28;20446;-60
2021/11/02 12:16:50;;;;;;;24.48;20.52;;;;;;;;;;5055820;28;20032;-60
2021/11/02 12:19:39;;;;;;;24.35;18.83;;;15.00;99.90;;;;;;5048042;28;20100;-60
2021/11/02 12:22:12;;;;;;;22.58;18.45;;;15.10;99.90;;;;;;5053515;28;20029;-60
2021/11/02 12:24:39;;;;;;;20.50;17.50;;;14.90;99.90;;;;;;5053025;28;20090;-60
2021/11/02 12:27:19;;;;;;;20.45;18.23;;;14.90;98.30;;;;;;5045130;28;20075;-60
2021/11/02 12:29:49;;;;;;;20.58;18.30;;;15.00;99.90;;;;;;5026981;28;20029;-60
2021/11/02 12:32:18;;;;;;;21.65;18.48;;;15.20;99.90;;;;;;5051090;28;20037;-60
2021/11/02 12:34:50;;;;;;;21.23;17.58;;;15.10;98.80;;;;;;5041078;28;20384;-60
2021/11/02 12:37:48;;;;;;;22.42;18.10;;;15.10;99.90;;;;;;5066225;28;20029;-60
2021/11/02 12:40:17;;;;;;;21.10;18.70;;;15.10;99.90;;;;;;5035137;28;20409;-60
2021/11/02 12:42:44;;;;;;;23.13;19.27;;;15.00;98.90;;;;;;5072939;28;20049;-60
2021/11/02 12:45:11;;;;;;;21.55;18.95;;;15.10;93.00;;;;;;5070916;28;20040;-60
2021/11/02 12:47:38;;;;;;;20.73;18.52;;;15.10;86.60;;;;;;5072797;28;20032;-60
2021/11/02 12:50:06;;;;;;;21.58;17.90;;;15.00;87.80;;;;;;5056137;28;20041;-60
2021/11/02 12:52:36;;;;;;;20.00;16.55;;;15.10;87.90;;;;;;5052687;28;20033;-60
2021/11/02 12:55:13;;;;;;;18.70;16.67;;;15.10;87.10;;;;;;5051818;28;20579;-60
2021/11/02 12:57:45;;;;;;;17.63;15.65;;;15.10;86.00;;;;;;5051937;28;20029;-60
2021/11/02 13:00:27;;;;;;;16.90;15.10;;;15.30;84.90;;;;;;5061975;28;20124;-60
2021/11/02 13:03:03;;;;;;;17.63;15.48;;;15.50;81.70;;;;;;5072663;28;20107;-60
2021/11/02 13:05:31;;;;;;;17.60;15.32;;;15.60;78.60;;;;;;5053105;28;20445;-61
2021/11/02 13:08:02;;;;;;;16.02;14.32;;;15.50;80.40;;;;;;5052532;28;20048;-61
2021/11/02 13:10:31;;;;;;;18.98;16.15;;;15.40;81.00;;;;;;5068469;28;20564;-61
2021/11/02 13:13:13;;;;;;;21.52;18.52;;;15.50;81.60;;;;;;5072175;28;20029;-60
2021/11/02 13:15:52;;;;;;;18.80;16.38;;;15.40;80.50;;;;;;5038117;28;20045;-60
2021/11/02 13:18:37;;;;;;;19.65;17.08;;;15.40;79.40;;;;;;5033054;28;20025;-60
2021/11/02 13:21:07;;;;;;;;;;;15.50;79.40;;;;;;5034564;28;20026;-60
2021/11/02 13:23:42;;;;;;;18.20;15.25;;;15.40;78.30;;;;;;5041287;28;19966;-60
2021/11/02 13:26:20;;;;;;;17.45;15.48;;;15.40;80.00;;;;;;5035984;28;20074;-60
2021/11/02 13:28:46;;;;;;;17.63;15.25;;;15.50;78.70;;;;;;5045357;28;20046;-60
2021/11/02 13:31:34;;;;;;;19.38;17.25;;;15.50;84.90;;;;;;5053939;28;20483;-60
2021/11/02 13:34:14;;;;;;;18.20;16.35;;;15.60;90.00;;;;;;5044977;28;20480;-60
2021/11/02 13:36:41;;;;;;;19.20;15.88;;;15.60;76.20;;;;;;5032796;28;20065;-60
2021/11/02 13:39:07;;;;;;;17.45;15.25;;;15.60;74.80;;;;;;5036545;28;20044;-61
2021/11/02 13:41:35;;;;;;;18.13;15.77;;;15.80;74.80;;;;;;5053107;28;20024;-60
2021/11/02 13:44:09;;;;;;;21.85;15.75;;;15.80;74.70;;;;;;5048246;28;20022;-60
2021/11/02 13:46:43;;;;;;;19.00;17.02;;;15.70;75.00;;;;;;5033971;28;20033;-60
2021/11/02 13:49:11;;;;;;;17.13;15.13;;;15.70;75.20;;;;;;5036779;28;20056;-60
2021/11/02 13:51:37;;;;;;;19.60;15.88;;;15.70;75.20;;;;;;5053463;28;20108;-61
2021/11/02 13:54:05;;;;;;;18.75;16.73;;;15.50;74.50;;;;;;5048868;28;20484;-60
2021/11/02 13:56:36;;;;;;;18.88;16.88;;;15.70;75.60;;;;;;5033475;28;20048;-60
2021/11/02 13:59:04;;;;;;;19.92;17.83;;;15.80;75.50;;;;;;5043558;28;20025;-60
2021/11/02 14:01:46;;;;;;;19.63;17.60;;;15.80;75.00;;;;;;5032149;28;20395;-60
2021/11/02 14:04:32;;;;;;;17.77;15.50;;;15.90;73.20;;;;;;5031382;28;20060;-60
2021/11/02 14:07:12;;;;;;;17.10;14.60;;;15.70;72.10;;;;;;5033333;28;20068;-60
2021/11/02 14:09:55;;;;;;;19.45;17.35;;;15.80;72.30;;;;;;5039245;28;20025;-60
2021/11/02 14:12:32;;;;;;;21.40;19.02;;;15.70;74.90;;;;;;5053699;28;20071;-60
2021/11/02 14:15:14;;;;;;;20.65;17.63;;;15.80;73.20;;;;;;5050134;28;20028;-61
2021/11/02 14:17:56;;;;;;;17.80;15.82;;;15.80;72.80;;;;;;5053303;28;20394;-60
2021/11/02 14:20:49;;;;;;;19.70;17.60;;;15.60;73.30;;;;;;5038976;28;20048;-60
2021/11/02 14:23:39;;;;;;;17.90;16.00;;;15.60;73.70;;;;;;5033169;28;20021;-60
2021/11/02 14:26:22;;;;;;;18.75;16.33;;;15.80;73.40;;;;;;5042858;28;20038;-61
2021/11/02 14:28:51;;;;;;;18.33;16.52;;;15.70;75.00;;;;;;5033104;28;20124;-60
2021/11/02 14:31:40;;;;;;;21.60;17.30;;;15.70;74.00;;;;;;5051860;28;20555;-60
2021/11/02 14:34:08;;;;;;;20.17;17.85;;;15.60;73.20;;;;;;5050198;28;20025;-60
2021/11/02 14:36:40;;;;;;;18.90;16.90;;;15.80;74.10;;;;;;5033044;28;20061;-60
2021/11/02 14:39:13;;;;;;;18.75;16.25;;;15.80;72.50;;;;;;5032162;28;20048;-60
2021/11/02 14:41:47;;;;;;;18.92;15.68;;;15.90;73.30;;;;;;5033475;28;20038;-60
2021/11/02 14:44:27;;;;;;;18.08;14.48;;;15.70;70.40;;;;;;5032101;28;20053;-61
2021/11/02 14:46:59;;;;;;;16.73;14.60;;;15.50;71.40;;;;;;5033333;28;20065;-60
2021/11/02 14:49:30;;;;;;;18.10;16.20;;;15.40;71.90;;;;;;5034811;28;20633;-60
2021/11/02 14:52:42;;;;;;;19.85;16.48;;;15.30;72.60;;;;;;5052919;28;20063;-60
2021/11/02 14:55:45;;;;;;;18.75;16.75;;;15.50;71.40;;;;;;5028695;28;20091;-60
2021/11/02 14:58:11;;;;;;;19.35;16.88;;;15.50;73.10;;;;;;5036859;28;20029;-60
2021/11/02 15:00:38;;;;;;;23.30;17.13;;;15.40;74.60;;;;;;5048149;28;20017;-60
2021/11/02 15:03:15;;;;;;;19.60;17.38;;;15.40;72.30;;;;;;5057103;28;20060;-60
2021/11/02 15:05:41;;;;;;;20.27;18.15;;;15.20;74.80;;;;;;5042191;28;20053;-60
2021/11/02 15:08:13;;;;;;;23.95;17.73;;;15.30;74.40;;;;;;5035899;28;20021;-60
2021/11/02 15:10:43;;;;;;;21.58;18.65;;;15.30;75.90;;;;;;5034517;28;20554;-60
2021/11/02 15:13:09;;;;;;;25.25;19.10;;;15.30;75.50;;;;;;5036546;28;20026;-59
2021/11/02 15:15:35;;;;;;;23.83;19.38;;;15.20;77.00;;;;;;5047440;28;20061;-59
2021/11/02 15:18:09;;;;;;;24.48;18.25;;;15.20;77.70;;;;;;5056666;28;20060;-60
2021/11/02 15:20:35;;;;;;;21.67;17.58;;;15.10;77.20;;;;;;5042852;28;20117;-59
2021/11/02 15:23:01;;;;;;;22.55;18.67;;;15.00;78.80;;;;;;5039227;28;20452;-59
2021/11/02 15:25:27;;;;;;;19.75;17.15;;;15.00;79.10;;;;;;5047412;28;20610;-60
2021/11/02 15:28:00;;;;;;;22.40;19.13;;;14.90;79.00;;;;;;5056363;28;20028;-59
2021/11/02 15:30:26;;;;;;;24.90;19.58;;;15.00;79.10;;;;;;5053162;28;20391;-59
2021/11/02 15:32:52;;;;;;;25.98;19.10;;;15.00;80.40;;;;;;5056443;28;20029;-59
2021/11/02 15:35:21;;;;;;;27.25;19.88;;;15.00;80.20;;;;;;5053331;28;20500;-59
2021/11/02 15:37:58;;;;;;;23.70;19.35;;;15.00;80.70;;;;;;5056120;28;20119;-60
2021/11/02 15:40:39;;;;;;;25.52;18.92;;;14.90;80.60;;;;;;5053641;28;20152;-59
2021/11/02 15:43:11;;;;;;;23.95;19.92;;;15.00;81.30;;;;;;5055939;28;20028;-59
2021/11/02 15:45:39;;;;;;;22.10;17.85;;;14.90;81.50;;;;;;5052282;28;20037;-60
2021/11/02 15:48:23;;;;;;;25.83;19.77;;;14.90;81.70;;;;;;5055999;28;20489;-59
2021/11/02 15:50:51;;;;;;;27.08;19.73;;;14.80;80.70;;;;;;5052947;28;20517;-60
2021/11/02 15:53:26;;;;;;;22.23;19.20;;;14.90;80.30;;;;;;5046095;28;20566;-60
2021/11/02 15:55:56;;;;;;;22.85;19.77;;;14.90;82.00;;;;;;5035028;28;20029;-59
2021/11/02 15:58:24;;;;;;;24.70;20.05;;;14.90;82.60;;;;;;5035869;28;20047;-59
2021/11/02 16:00:50;;;;;;;25.50;19.95;;;14.80;81.40;;;;;;5033561;28;20522;-59
2021/11/02 16:03:16;;;;;;;24.58;21.15;;;14.70;83.70;;;;;;5030335;28;20065;-59
2021/11/02 16:05:43;;;;;;;22.95;19.08;;;14.60;84.70;;;;;;5032942;28;20411;-59
2021/11/02 16:08:17;;;;;;;23.58;20.45;;;14.60;85.30;;;;;;5035035;28;20025;-59
2021/11/02 16:11:04;;;;;;;25.75;19.88;;;14.70;84.50;;;;;;5038647;28;20032;-59
2021/11/02 16:13:29;;;;;;;23.17;19.52;;;14.60;85.70;;;;;;5035006;28;20097;-59
2021/11/02 16:15:58;;;;;;;25.42;20.60;;;14.50;84.30;;;;;;5034432;28;20108;-59
2021/11/02 16:18:26;;;;;;;24.10;18.83;;;14.60;86.50;;;;;;5035536;28;20356;-60
2021/11/02 16:20:53;;;;;;;27.20;19.63;;;14.50;86.30;;;;;;5045854;28;20032;-61
2021/11/02 16:23:22;;;;;;;23.30;19.02;;;14.50;87.30;;;;;;5045617;28;20513;-61
2021/11/02 16:25:59;;;;;;;25.95;20.42;;;14.60;87.40;;;;;;5033065;28;20406;-61
2021/11/02 16:28:33;;;;;;;27.27;20.70;;;14.50;85.90;;;;;;5035165;28;20061;-61
2021/11/02 16:31:02;;;;;;;23.80;19.13;;;14.50;86.90;;;;;;5033087;28;20154;-60
2021/11/02 16:33:37;;;;;;;25.38;20.27;;;14.40;87.60;;;;;;5035441;28;20037;-61
2021/11/02 16:36:29;;;;;;;22.48;19.38;;;14.40;88.40;;;;;;5034348;28;20162;-61
2021/11/02 16:39:03;;;;;;;25.20;20.02;;;14.40;87.70;;;;;;5034865;28;20049;-61
2021/11/02 16:41:39;;;;;;;25.60;21.10;;;14.40;89.20;;;;;;5034393;28;20037;-61
2021/11/02 16:44:08;;;;;;;26.50;21.13;;;14.40;88.70;;;;;;5034950;28;20045;-61
2021/11/02 16:46:40;;;;;;;30.02;23.20;;;14.40;89.10;;;;;;5034007;28;20075;-61
2021/11/02 16:49:19;;;;;;;25.88;21.65;;;14.30;90.10;;;;;;5026648;28;20026;-61
2021/11/02 16:51:46;;;;;;;30.08;22.50;;;14.40;90.30;;;;;;5032562;28;20069;-61
2021/11/02 16:54:14;;;;;;;29.27;22.08;;;14.40;90.20;;;;;;5046716;28;20044;-61
2021/11/02 16:57:22;;;;;;;29.48;21.45;;;14.40;90.10;;;;;;5051574;28;20032;-61
2021/11/02 17:00:06;;;;;;;29.17;21.90;;;14.30;90.10;;;;;;5031303;28;20090;-61
2021/11/02 17:02:40;;;;;;;28.37;22.40;;;14.30;89.60;;;;;;5034804;28;20439;-61
2021/11/02 17:05:26;;;;;;;28.67;22.10;;;14.30;90.20;;;;;;5033064;28;20041;-60
2021/11/02 17:07:54;;;;;;;27.70;20.88;;;14.20;89.50;;;;;;5015547;28;20260;-61
2021/11/02 17:11:06;;;;;;;26.73;21.05;;;14.10;90.30;;;;;;5014683;28;20479;-60
2021/11/02 17:13:37;;;;;;;28.88;21.25;;;14.10;90.40;;;;;;5017253;28;20376;-60
2021/11/02 17:16:16;;;;;;;29.67;21.48;;;14.10;90.60;;;;;;5013782;28;20026;-61
2021/11/02 17:18:52;;;;;;;28.98;21.85;;;14.20;90.30;;;;;;5034144;28;20041;-61
2021/11/02 17:21:20;;;;;;;28.85;22.83;;;14.30;90.90;;;;;;5033698;28;20021;-61
2021/11/02 17:23:46;;;;;;;26.25;21.45;;;14.30;90.90;;;;;;5053392;28;20044;-61
2021/11/02 17:26:14;;;;;;;31.98;21.48;;;14.30;90.90;;;;;;5035701;28;20041;-61
2021/11/02 17:28:44;;;;;;;25.58;20.17;;;14.20;90.90;;;;;;5051340;28;20052;-61
2021/11/02 17:31:10;;;;;;;31.30;21.63;;;14.30;90.80;;;;;;5032842;28;20069;-61
2021/11/02 17:33:36;;;;;;;29.10;21.67;;;14.20;90.70;;;;;;5048256;28;20025;-61
2021/11/02 17:36:04;;;;;;;28.00;21.40;;;14.20;90.80;;;;;;5053748;28;20356;-61
2021/11/02 17:38:31;;;;;;;28.70;23.05;;;14.20;90.80;;;;;;5049390;28;20041;-61
2021/11/02 17:41:07;;;;;;;29.58;21.92;;;14.20;91.10;;;;;;5054022;28;20071;-59
2021/11/02 17:43:35;;;;;;;27.90;22.40;;;14.20;91.30;;;;;;5051660;28;20424;-61
2021/11/02 17:46:02;;;;;;;29.92;22.17;;;13.90;91.20;;;;;;5036470;28;20333;-61
2021/11/02 17:48:27;;;;;;;31.20;23.58;;;14.10;91.40;;;;;;5036939;28;20109;-61
2021/11/02 17:50:54;;;;;;;26.85;21.40;;;14.20;91.40;;;;;;5021937;28;20468;-61
2021/11/02 17:53:23;;;;;;;31.10;22.25;;;14.10;91.40;;;;;;5029694;28;20032;-61
2021/11/02 17:55:52;;;;;;;33.63;23.00;;;14.00;91.40;;;;;;5027024;28;20491;-61
2021/11/02 17:58:20;;;;;;;27.92;21.63;;;14.10;91.40;;;;;;5023237;28;20038;-62